WESTPORT MEDIA Westport In The Media

Enter your "Place, State", US Zip Code or ICAO:  

Nice, France

 Lat: 43.65N, Lon: 7.20E
ICAO Used: LFMN
Current Conditions
Updated: 8:00 AM GMT1 SAT NOV 1 2014
Sun & Moon Information
Fair
Fair
Temp: 13°C
Humidity: 62%
Wind Speed: NNW 12 MPH
Barometer: 1024 mb
Dewpoint: 6°C
Heat Index: 13°C
Wind Chill: 11°C
Civil Twilight: 6:35 AM GMT1 Moon Phase:
Waxing Gibbous Moon
Sunrise: 7:05 AM GMT1
Sunset: 5:23 PM GMT1
Civil Twilight: 5:52 PM GMT1
Forecast for Nice, France:
(Forecast based on TAF for )
1000 AM GMT1 SAT NOV 01 2014
  
MORNING AFTERNOON EVENING OVERNIGHT MORNING AFTERNOON
Partly
Cloudy
Partly
Cloudy
Fair Fair Fair Fair
ZoneCast:
Dated: 1000 AM GMT1 SAT NOV 01 2014
Morning...Becoming partly cloudy with winds from the south at 9 mph.

Afternoon...Partly cloudy with winds from the south at 9 mph.

Evening...Partly cloudy with winds from the south at 9 mph. Becoming fair with winds from the northnorthwest at 12 mph.

Overnight...Fair with winds from the northnorthwest at 12 mph.

Morning...Fair with winds from the northnorthwest at 12 mph.

Afternoon...Fair with winds from the south at 6 mph.

Evening...Fair with winds from the south at 6 mph.

Overnight...Fair with winds from the south at 6 mph.

Original Encoded TAF:
Dated: 1000 AM GMT1 SAT NOV 01 2014
TAF LFMN 010500Z 0106/0212 34010KT CAVOK 
     BECMG 0109/0111 18008KT FEW040 
     BECMG 0118/0120 34010KT 
     BECMG 0209/0211 18005KT